Time;durP1;ratioP1;P1;durP2;ratioP2;P2;SDS_P1;SDS_P2;PMS_P1;PMS_P2;Temp;Humidity;BMP_temperature;BMP_pressure;BME280_temperature;BME280_humidity;BME280_pressure;Samples;Min_cycle;Max_cycle;Signal;HPM_P1;HPM_P2
2023/05/17 00:00:13;;;;;;;20.13;8.60;;;12.30;99.90;;;;;;5018275;28;20356;-63
2023/05/17 00:02:39;;;;;;;23.58;8.55;;;12.30;99.90;;;;;;5017735;28;20058;-62
2023/05/17 00:05:05;;;;;;;19.70;7.82;;;12.30;99.90;;;;;;5018103;28;20044;-63
2023/05/17 00:07:31;;;;;;;18.85;8.25;;;12.20;99.90;;;;;;5017900;28;20049;-63
2023/05/17 00:09:57;;;;;;;23.52;9.25;;;12.20;99.90;;;;;;5017883;28;20088;-63
2023/05/17 00:12:23;;;;;;;29.75;8.23;;;12.30;99.90;;;;;;5017669;28;20037;-63
2023/05/17 00:14:49;;;;;;;27.77;7.60;;;12.40;99.90;;;;;;5018011;28;20422;-63
2023/05/17 00:17:15;;;;;;;21.80;7.82;;;12.40;99.90;;;;;;5017980;28;20049;-63
2023/05/17 00:19:41;;;;;;;27.20;9.55;;;12.40;99.90;;;;;;5017852;28;20132;-62
2023/05/17 00:22:07;;;;;;;20.05;7.65;;;12.40;99.90;;;;;;5017551;28;20073;-63
2023/05/17 00:24:33;;;;;;;23.35;8.60;;;12.40;99.90;;;;;;5017847;28;20169;-63
2023/05/17 00:26:59;;;;;;;28.77;8.30;;;12.40;99.90;;;;;;5017672;28;20018;-62
2023/05/17 00:29:25;;;;;;;22.25;8.13;;;12.40;99.90;;;;;;5017766;28;20026;-63
2023/05/17 00:31:51;;;;;;;19.33;7.47;;;12.30;99.90;;;;;;5017665;28;20076;-63
2023/05/17 00:34:17;;;;;;;19.73;7.93;;;12.30;99.90;;;;;;5017677;28;20487;-63
2023/05/17 00:36:43;;;;;;;24.55;8.63;;;12.40;99.90;;;;;;5017613;28;20108;-63
2023/05/17 00:39:09;;;;;;;18.88;7.57;;;12.30;99.90;;;;;;4999900;28;20030;-63
2023/05/17 00:41:36;;;;;;;22.85;8.07;;;12.30;99.90;;;;;;5017460;28;20100;-63
2023/05/17 00:44:02;;;;;;;26.95;8.98;;;12.40;99.90;;;;;;4999886;28;20133;-63
2023/05/17 00:46:28;;;;;;;25.48;10.30;;;12.40;99.90;;;;;;5017372;28;20058;-63
2023/05/17 00:48:54;;;;;;;37.35;12.57;;;12.50;99.90;;;;;;5017078;28;20036;-63
2023/05/17 00:51:21;;;;;;;43.15;15.98;;;12.50;99.90;;;;;;5017246;28;20025;-63
2023/05/17 00:53:47;;;;;;;43.63;16.35;;;12.30;99.90;;;;;;4999881;28;20489;-63
2023/05/17 00:56:13;;;;;;;38.92;13.57;;;12.40;99.90;;;;;;4999614;28;20030;-63
2023/05/17 00:58:41;;;;;;;33.83;10.88;;;12.40;99.90;;;;;;5017209;28;20018;-63
2023/05/17 01:01:07;;;;;;;27.10;9.82;;;12.40;99.90;;;;;;4999174;28;20038;-63
2023/05/17 01:03:33;;;;;;;39.08;13.52;;;12.40;99.90;;;;;;4999191;28;20037;-63
2023/05/17 01:05:59;;;;;;;33.03;11.43;;;12.40;99.90;;;;;;4999587;28;20380;-63
2023/05/17 01:08:26;;;;;;;27.02;10.20;;;12.40;99.90;;;;;;5016719;28;20046;-63
2023/05/17 01:11:01;;;;;;;26.52;9.77;;;12.30;99.90;;;;;;5016703;28;20049;-63
2023/05/17 01:13:35;;;;;;;30.48;11.13;;;12.40;99.90;;;;;;4999273;28;20037;-63
2023/05/17 01:16:15;;;;;;;21.85;8.93;;;12.50;99.90;;;;;;5016714;28;20031;-63
2023/05/17 01:18:51;;;;;;;19.33;7.22;;;12.50;99.90;;;;;;5016964;28;20038;-63
2023/05/17 01:22:08;;;;;;;25.20;10.10;;;12.50;99.90;;;;;;4999186;28;20041;-63
2023/05/17 01:25:10;;;;;;;26.23;9.85;;;12.40;99.90;;;;;;4917636;29;20036;-63
2023/05/17 01:27:40;;;;;;;29.70;10.07;;;12.50;99.90;;;;;;4896470;29;20111;-63
2023/05/17 01:30:12;;;;;;;30.38;9.18;;;12.40;99.90;;;;;;4917530;29;20397;-63
2023/05/17 01:32:41;;;;;;;25.27;8.57;;;12.40;99.90;;;;;;4917637;29;20171;-63
2023/05/17 01:35:08;;;;;;;24.40;8.38;;;12.30;99.90;;;;;;4917395;29;20048;-63
2023/05/17 01:37:34;;;;;;;17.45;7.20;;;12.20;99.90;;;;;;4917597;29;20119;-63
2023/05/17 01:40:00;;;;;;;25.17;11.02;;;12.30;99.90;;;;;;4917394;29;20538;-63
2023/05/17 01:42:31;;;;;;;30.55;11.27;;;12.30;99.90;;;;;;4901652;29;20082;-63
2023/05/17 01:45:12;;;;;;;31.33;16.10;;;12.20;99.90;;;;;;4901443;29;20043;-63
2023/05/17 01:48:04;;;;;;;29.92;11.65;;;12.20;99.90;;;;;;4917236;29;20055;-63
2023/05/17 01:50:33;;;;;;;23.65;11.00;;;12.30;99.90;;;;;;4917344;29;20435;-63
2023/05/17 01:53:15;;;;;;;26.65;10.15;;;12.30;99.90;;;;;;4917276;29;20115;-63
2023/05/17 01:55:49;;;;;;;23.40;9.23;;;12.30;99.90;;;;;;4981106;28;20046;-63
2023/05/17 01:58:17;;;;;;;23.98;10.82;;;12.30;99.90;;;;;;4998277;28;20551;-63
2023/05/17 02:00:48;;;;;;;25.58;10.73;;;12.20;99.90;;;;;;4997845;28;20029;-63
2023/05/17 02:03:20;;;;;;;33.33;9.30;;;12.20;99.90;;;;;;5016051;28;20069;-63
2023/05/17 02:05:51;;;;;;;30.13;8.77;;;12.20;99.90;;;;;;5015843;28;20025;-63
2023/05/17 02:08:17;;;;;;;14.93;7.68;;;12.10;99.90;;;;;;5015787;28;20599;-63
2023/05/17 02:10:43;;;;;;;20.25;8.88;;;12.10;99.90;;;;;;4998135;28;20029;-63
2023/05/17 02:13:09;;;;;;;18.85;7.35;;;12.00;99.90;;;;;;5015672;28;20484;-63
2023/05/17 02:15:35;;;;;;;26.73;8.95;;;12.00;99.90;;;;;;5015645;28;20033;-64
2023/05/17 02:18:01;;;;;;;15.73;8.00;;;11.90;99.90;;;;;;5015659;28;20518;-63
2023/05/17 02:20:27;;;;;;;22.77;8.70;;;11.90;99.90;;;;;;5015825;28;20090;-63
2023/05/17 02:22:53;;;;;;;22.80;7.68;;;11.80;99.90;;;;;;5015638;28;20026;-63
2023/05/17 02:25:19;;;;;;;25.08;8.15;;;11.80;99.90;;;;;;5015608;28;20030;-63
2023/05/17 02:27:45;;;;;;;27.90;7.65;;;11.90;99.90;;;;;;5015316;28;20021;-63
2023/05/17 02:30:12;;;;;;;22.13;7.38;;;11.80;99.90;;;;;;5015484;28;20109;-63
2023/05/17 02:32:39;;;;;;;19.65;6.55;;;11.70;99.90;;;;;;5015344;28;20034;-63
2023/05/17 02:35:06;;;;;;;28.58;6.65;;;11.60;99.90;;;;;;5015360;28;20055;-63
2023/05/17 02:37:32;;;;;;;19.50;6.18;;;11.50;99.90;;;;;;5015275;28;20033;-63
2023/05/17 02:39:57;;;;;;;24.00;7.07;;;11.50;99.90;;;;;;5015279;28;20033;-63
2023/05/17 02:42:23;;;;;;;26.77;6.20;;;11.50;99.90;;;;;;5015165;28;20034;-63
2023/05/17 02:44:51;;;;;;;26.08;7.10;;;11.50;99.90;;;;;;5015309;28;20116;-63
2023/05/17 02:47:19;;;;;;;21.83;6.22;;;11.50;99.90;;;;;;4997471;28;20117;-64
2023/05/17 02:49:46;;;;;;;22.48;5.50;;;11.40;99.90;;;;;;5015111;28;20389;-63
2023/05/17 02:52:14;;;;;;;18.45;5.82;;;11.30;99.90;;;;;;4997261;28;20041;-63
2023/05/17 02:54:42;;;;;;;24.17;6.95;;;11.20;99.90;;;;;;4997469;28;20068;-63
2023/05/17 02:57:10;;;;;;;19.27;6.53;;;11.30;99.90;;;;;;4997294;28;20034;-63
2023/05/17 02:59:36;;;;;;;12.98;5.32;;;11.30;99.90;;;;;;4997351;28;20030;-63
2023/05/17 03:02:02;;;;;;;30.67;6.68;;;11.30;99.90;;;;;;4997303;28;20042;-63
2023/05/17 03:04:28;;;;;;;51.83;13.02;;;11.40;99.90;;;;;;4997162;28;20022;-63
2023/05/17 03:06:55;;;;;;;86.10;15.50;;;11.30;99.90;;;;;;4993899;28;20093;-63
2023/05/17 03:09:21;;;;;;;87.00;14.43;;;11.40;99.90;;;;;;4993697;28;20027;-63
2023/05/17 03:11:49;;;;;;;81.55;14.80;;;11.30;99.90;;;;;;4993265;28;20508;-63
2023/05/17 03:14:23;;;;;;;45.95;12.40;;;11.30;99.90;;;;;;4993708;28;20034;-63
2023/05/17 03:16:49;;;;;;;43.97;11.63;;;11.30;99.90;;;;;;4993776;28;20034;-63
2023/05/17 03:19:16;;;;;;;51.30;13.25;;;11.20;99.90;;;;;;4993909;28;20113;-63
2023/05/17 03:21:43;;;;;;;69.22;15.45;;;11.20;99.90;;;;;;4993905;28;20030;-63
2023/05/17 03:24:10;;;;;;;56.60;14.68;;;11.20;99.90;;;;;;4993854;28;20026;-63
2023/05/17 03:26:38;;;;;;;41.80;12.93;;;11.20;99.90;;;;;;4993592;28;20029;-63
2023/05/17 03:29:05;;;;;;;44.35;12.73;;;11.20;99.90;;;;;;4993808;28;20034;-63
2023/05/17 03:31:33;;;;;;;61.63;14.95;;;11.30;99.90;;;;;;4993728;28;20030;-63
2023/05/17 03:33:59;;;;;;;47.95;16.13;;;11.20;99.90;;;;;;4993632;28;20177;-64
2023/05/17 03:36:25;;;;;;;42.90;15.35;;;11.20;99.90;;;;;;4993680;28;20034;-63
2023/05/17 03:38:51;;;;;;;53.35;16.63;;;11.20;99.90;;;;;;4993590;28;20160;-63
2023/05/17 03:41:17;;;;;;;75.18;20.17;;;11.10;99.90;;;;;;4993582;28;20022;-63
2023/05/17 03:43:43;;;;;;;75.25;18.63;;;11.20;99.90;;;;;;4993619;28;20423;-63
2023/05/17 03:46:13;;;;;;;83.85;18.42;;;11.30;99.90;;;;;;4993354;28;20165;-63
2023/05/17 03:48:40;;;;;;;75.07;20.77;;;11.40;99.90;;;;;;4993583;28;20039;-63
2023/05/17 03:51:06;;;;;;;95.63;20.48;;;11.30;99.90;;;;;;4993574;28;20024;-63
2023/05/17 03:53:32;;;;;;;95.15;22.60;;;11.30;99.90;;;;;;4993652;28;20034;-63
2023/05/17 03:55:58;;;;;;;91.40;23.92;;;11.40;99.90;;;;;;4994864;28;20027;-64
2023/05/17 03:58:25;;;;;;;87.65;23.45;;;11.50;99.90;;;;;;4993395;28;20026;-63
2023/05/17 04:00:51;;;;;;;61.03;23.02;;;11.50;99.90;;;;;;4993387;28;20484;-63
2023/05/17 04:03:18;;;;;;;88.30;24.65;;;11.50;99.90;;;;;;4993423;28;20034;-63
2023/05/17 04:05:45;;;;;;;114.78;26.48;;;11.60;99.90;;;;;;4995219;28;20073;-63
2023/05/17 04:08:12;;;;;;;98.95;25.58;;;11.60;99.90;;;;;;4993216;28;20054;-63
2023/05/17 04:10:40;;;;;;;92.32;23.23;;;11.40;99.90;;;;;;4994772;28;20453;-64
2023/05/17 04:13:09;;;;;;;76.35;22.40;;;11.60;99.90;;;;;;4993382;28;20233;-64
2023/05/17 04:15:36;;;;;;;57.35;19.80;;;11.60;99.90;;;;;;4993146;28;20030;-64
2023/05/17 04:18:03;;;;;;;68.72;21.08;;;11.70;99.90;;;;;;4993243;28;20391;-63
2023/05/17 04:20:30;;;;;;;60.97;20.63;;;11.70;99.90;;;;;;4993311;28;20041;-63
2023/05/17 04:22:56;;;;;;;82.40;21.27;;;11.70;99.90;;;;;;4994404;28;20053;-64
2023/05/17 04:25:24;;;;;;;74.75;21.80;;;11.70;99.90;;;;;;4996457;28;20044;-63
2023/05/17 04:27:50;;;;;;;99.97;26.38;;;11.70;99.90;;;;;;4977087;28;20027;-63
2023/05/17 04:30:20;;;;;;;89.20;24.52;;;11.70;99.90;;;;;;4993521;28;20026;-64
2023/05/17 04:32:46;;;;;;;117.93;28.30;;;11.90;99.90;;;;;;4993731;28;20034;-63
2023/05/17 04:35:13;;;;;;;107.60;32.80;;;11.90;99.90;;;;;;4993369;28;20473;-63
2023/05/17 04:37:42;;;;;;;97.72;27.10;;;12.10;99.90;;;;;;4993347;28;20058;-64
2023/05/17 04:40:17;;;;;;;75.55;23.42;;;12.10;99.90;;;;;;4993447;28;20033;-63
2023/05/17 04:42:44;;;;;;;80.15;17.08;;;12.20;99.90;;;;;;4993079;28;20378;-64
2023/05/17 04:45:11;;;;;;;55.40;17.13;;;12.30;99.90;;;;;;4988888;28;20069;-63
2023/05/17 04:47:38;;;;;;;36.22;13.32;;;12.20;99.90;;;;;;4996488;28;20457;-63
2023/05/17 04:50:04;;;;;;;47.50;15.02;;;12.30;99.90;;;;;;4996235;28;20033;-63
2023/05/17 04:52:31;;;;;;;47.22;15.48;;;12.40;99.90;;;;;;4997729;28;20045;-63
2023/05/17 04:54:57;;;;;;;50.67;16.25;;;12.40;99.90;;;;;;4996304;28;20034;-63
2023/05/17 04:57:23;;;;;;;41.00;16.52;;;12.20;99.90;;;;;;4996058;28;20476;-64
2023/05/17 04:59:56;;;;;;;38.13;15.52;;;12.20;99.90;;;;;;4996120;28;20038;-64
2023/05/17 05:02:23;;;;;;;45.65;16.08;;;12.30;99.90;;;;;;4995999;28;20373;-63
2023/05/17 05:04:49;;;;;;;45.03;16.90;;;12.40;99.90;;;;;;4996056;28;20030;-63
2023/05/17 05:07:16;;;;;;;47.60;18.60;;;12.50;99.90;;;;;;4996002;28;20042;-64
2023/05/17 05:09:43;;;;;;;44.50;16.08;;;12.60;99.90;;;;;;4995759;28;20182;-63
2023/05/17 05:12:11;;;;;;;42.67;16.25;;;12.70;99.90;;;;;;4995965;28;20034;-63
2023/05/17 05:14:38;;;;;;;44.22;15.95;;;12.80;99.90;;;;;;4995992;28;20034;-63
2023/05/17 05:17:05;;;;;;;51.92;16.48;;;12.60;99.90;;;;;;4995576;28;20054;-63
2023/05/17 05:19:32;;;;;;;64.88;19.48;;;12.70;99.90;;;;;;4995712;28;20472;-63
2023/05/17 05:21:59;;;;;;;74.07;20.70;;;12.80;99.90;;;;;;4995813;28;20480;-62
2023/05/17 05:24:25;;;;;;;71.20;20.95;;;12.80;99.90;;;;;;4993823;28;20369;-63
2023/05/17 05:26:52;;;;;;;80.03;24.13;;;12.80;99.90;;;;;;4994993;28;20026;-63
2023/05/17 05:29:18;;;;;;;88.03;24.75;;;12.90;99.90;;;;;;4995635;28;20027;-63
2023/05/17 05:31:45;;;;;;;89.72;25.88;;;12.90;99.90;;;;;;4995451;28;20030;-63
2023/05/17 05:34:11;;;;;;;96.43;27.00;;;12.90;99.90;;;;;;4995515;28;20088;-63
2023/05/17 05:36:37;;;;;;;94.72;26.60;;;12.90;99.90;;;;;;4994595;28;20030;-63
2023/05/17 05:39:03;;;;;;;128.23;35.95;;;12.80;99.90;;;;;;4995352;28;20045;-62
2023/05/17 05:41:31;;;;;;;113.38;33.60;;;12.90;99.90;;;;;;4995292;28;20026;-63
2023/05/17 05:43:59;;;;;;;113.22;33.25;;;13.10;99.90;;;;;;4995314;28;20093;-63
2023/05/17 05:46:25;;;;;;;85.22;29.00;;;13.30;99.90;;;;;;4996250;28;20027;-63
2023/05/17 05:48:55;;;;;;;103.07;30.27;;;13.40;99.90;;;;;;4995084;28;20026;-63
2023/05/17 05:51:21;;;;;;;101.68;31.75;;;13.40;99.90;;;;;;4995150;28;20404;-63
2023/05/17 05:53:48;;;;;;;81.63;28.27;;;13.40;99.90;;;;;;4995070;28;20081;-63
2023/05/17 05:56:14;;;;;;;81.50;28.95;;;13.20;99.90;;;;;;4995090;28;20094;-63
2023/05/17 05:58:40;;;;;;;69.03;25.05;;;13.40;99.90;;;;;;4995073;28;20066;-63
2023/05/17 06:01:07;;;;;;;66.38;23.25;;;13.50;99.90;;;;;;4995183;28;20566;-63
2023/05/17 06:03:33;;;;;;;73.60;28.40;;;13.70;99.90;;;;;;4996142;28;20030;-63
2023/05/17 06:05:59;;;;;;;73.70;26.95;;;13.70;99.90;;;;;;4996195;28;20432;-63
2023/05/17 06:08:25;;;;;;;72.60;25.05;;;13.80;99.90;;;;;;5015105;28;20084;-63
2023/05/17 06:10:51;;;;;;;81.45;29.30;;;14.00;99.90;;;;;;5015448;28;20036;-63
2023/05/17 06:13:17;;;;;;;97.28;30.88;;;14.00;99.90;;;;;;5015513;28;20049;-63
2023/05/17 06:15:43;;;;;;;96.95;32.38;;;14.20;99.90;;;;;;5015323;28;20050;-63
2023/05/17 06:18:09;;;;;;;107.55;34.75;;;14.30;99.90;;;;;;5015507;28;20041;-63
2023/05/17 06:20:35;;;;;;;82.55;27.83;;;14.40;99.90;;;;;;5015555;28;20108;-63
2023/05/17 06:23:01;;;;;;;61.58;24.23;;;14.30;99.90;;;;;;5014779;28;20459;-63
2023/05/17 06:25:27;;;;;;;23.52;13.82;;;14.30;99.90;;;;;;5015083;28;20061;-63
2023/05/17 06:27:52;;;;;;;35.10;14.50;;;14.40;99.90;;;;;;5014897;28;20129;-62
2023/05/17 06:30:18;;;;;;;25.98;13.55;;;14.50;99.90;;;;;;5014653;28;20034;-63
2023/05/17 06:32:44;;;;;;;25.77;12.40;;;14.60;99.90;;;;;;5013684;28;20025;-63
2023/05/17 06:35:10;;;;;;;27.40;13.60;;;14.50;99.90;;;;;;5013227;28;20474;-63
2023/05/17 06:37:36;;;;;;;22.33;13.18;;;14.40;99.90;;;;;;5014657;28;20064;-63
2023/05/17 06:40:09;;;;;;;30.55;14.00;;;14.60;99.90;;;;;;5014498;28;20060;-63
2023/05/17 06:42:35;;;;;;;22.40;12.77;;;14.80;99.90;;;;;;5014499;28;20022;-63
2023/05/17 06:45:01;;;;;;;27.40;12.75;;;15.10;99.90;;;;;;5014310;28;20022;-63
2023/05/17 06:47:28;;;;;;;28.23;14.70;;;15.10;99.90;;;;;;5014396;28;20033;-62
2023/05/17 06:49:54;;;;;;;33.42;15.88;;;15.40;99.90;;;;;;5014532;28;20057;-62
2023/05/17 06:52:21;;;;;;;32.80;17.80;;;15.10;99.90;;;;;;5014521;28;20044;-63
2023/05/17 06:54:47;;;;;;;37.92;17.15;;;15.50;99.90;;;;;;5014644;28;20026;-63
2023/05/17 06:57:13;;;;;;;34.22;17.60;;;16.00;99.90;;;;;;5015133;28;20030;-63
2023/05/17 06:59:39;;;;;;;40.95;18.00;;;16.30;99.90;;;;;;5015422;28;20045;-63
2023/05/17 07:02:05;;;;;;;49.80;21.42;;;16.40;99.90;;;;;;4997125;28;20096;-63
2023/05/17 07:04:35;;;;;;;54.03;24.48;;;16.60;99.90;;;;;;5015279;28;20025;-63
2023/05/17 07:07:01;;;;;;;45.08;23.20;;;16.60;99.90;;;;;;5014705;28;20046;-63
2023/05/17 07:09:27;;;;;;;44.15;20.63;;;16.50;99.90;;;;;;5015365;28;20479;-63
2023/05/17 07:11:53;;;;;;;70.70;26.70;;;16.70;99.90;;;;;;5014714;28;20041;-63
2023/05/17 07:14:19;;;;;;;56.63;24.67;;;16.70;99.90;;;;;;5015179;28;20390;-63
2023/05/17 07:16:46;;;;;;;53.22;23.05;;;16.90;99.90;;;;;;5015106;28;20026;-64
2023/05/17 07:19:12;;;;;;;55.33;23.25;;;17.20;99.90;;;;;;5014970;28;20026;-63
2023/05/17 07:21:38;;;;;;;54.33;21.30;;;17.30;99.90;;;;;;5014868;28;20092;-63
2023/05/17 07:24:04;;;;;;;47.08;20.65;;;17.40;99.90;;;;;;5014864;28;20018;-63
2023/05/17 07:26:31;;;;;;;48.38;21.13;;;17.70;99.90;;;;;;5008580;28;20026;-63
2023/05/17 07:28:57;;;;;;;53.50;22.73;;;18.00;99.90;;;;;;5014833;28;20152;-64
2023/05/17 07:31:23;;;;;;;53.55;23.67;;;18.30;99.90;;;;;;5014872;28;20065;-64
2023/05/17 07:33:49;;;;;;;54.15;22.50;;;18.50;99.90;;;;;;5014531;28;20029;-63
2023/05/17 07:36:15;;;;;;;58.83;25.33;;;18.80;99.90;;;;;;5014662;28;20026;-63
2023/05/17 07:38:41;;;;;;;52.72;21.58;;;19.20;99.90;;;;;;5013942;28;20030;-63
2023/05/17 07:41:12;;;;;;;40.78;18.88;;;19.50;99.90;;;;;;5013603;28;20084;-64
2023/05/17 07:43:38;;;;;;;40.00;17.85;;;19.90;99.90;;;;;;5013932;28;20514;-63
2023/05/17 07:46:04;;;;;;;41.72;19.75;;;20.00;99.60;;;;;;5013846;28;20018;-63
2023/05/17 07:48:30;;;;;;;46.03;18.33;;;20.20;99.90;;;;;;5014676;28;20033;-64
2023/05/17 07:50:56;;;;;;;51.28;20.17;;;20.40;99.40;;;;;;5014513;28;20026;-64
2023/05/17 07:53:22;;;;;;;61.15;22.67;;;20.50;98.50;;;;;;5014838;28;20075;-64
2023/05/17 07:55:48;;;;;;;48.33;22.50;;;20.80;99.90;;;;;;5012409;28;20104;-64
2023/05/17 07:58:14;;;;;;;57.17;23.23;;;20.90;98.10;;;;;;5013544;28;20549;-64
2023/05/17 08:00:41;;;;;;;58.58;23.60;;;21.20;97.30;;;;;;5017598;28;20034;-63
2023/05/17 08:03:07;;;;;;;55.22;23.35;;;21.40;96.40;;;;;;5015851;28;20037;-63
2023/05/17 08:05:33;;;;;;;56.40;23.65;;;21.70;96.70;;;;;;5017462;28;20044;-64
2023/05/17 08:07:59;;;;;;;77.15;28.90;;;22.30;95.50;;;;;;5017381;28;20037;-64
2023/05/17 08:10:26;;;;;;;74.55;30.13;;;22.30;91.60;;;;;;5017270;28;20033;-64
2023/05/17 08:12:53;;;;;;;71.03;26.63;;;22.70;92.20;;;;;;5018101;28;20030;-64
2023/05/17 08:15:22;;;;;;;72.72;27.17;;;23.00;91.10;;;;;;5007075;28;20038;-64
2023/05/17 08:17:54;;;;;;;73.43;27.02;;;23.40;90.80;;;;;;5017923;28;20032;-64
2023/05/17 08:20:20;;;;;;;66.95;23.83;;;23.60;88.30;;;;;;4990424;28;20092;-64
2023/05/17 08:22:46;;;;;;;60.30;23.45;;;23.80;83.70;;;;;;5018088;28;20502;-64
2023/05/17 08:25:12;;;;;;;58.33;22.80;;;23.90;78.40;;;;;;5017888;28;20029;-64
2023/05/17 08:27:38;;;;;;;64.68;25.17;;;24.20;80.30;;;;;;5015023;28;20428;-64
2023/05/17 08:30:05;;;;;;;52.85;22.45;;;24.50;76.60;;;;;;5018005;28;20022;-64
2023/05/17 08:32:31;;;;;;;54.50;21.75;;;24.50;79.60;;;;;;5018181;28;20045;-64
2023/05/17 08:34:57;;;;;;;52.22;22.00;;;24.70;76.80;;;;;;5017797;28;20048;-64
2023/05/17 08:37:23;;;;;;;58.38;22.77;;;24.80;74.50;;;;;;5017818;28;20474;-64
2023/05/17 08:39:50;;;;;;;50.10;17.67;;;24.40;71.50;;;;;;5018058;28;20030;-64
2023/05/17 08:42:25;;;;;;;44.42;17.27;;;24.50;73.40;;;;;;5017951;28;20476;-64
2023/05/17 08:44:54;;;;;;;41.85;17.40;;;25.20;73.50;;;;;;5016175;28;20022;-63
2023/05/17 08:47:32;;;;;;;47.78;16.95;;;25.40;72.30;;;;;;5017262;28;20032;-64
2023/05/17 08:50:04;;;;;;;37.42;14.45;;;26.00;73.50;;;;;;5017543;28;20483;-63
2023/05/17 08:52:34;;;;;;;39.15;13.80;;;26.40;67.90;;;;;;5013614;28;20034;-63
2023/05/17 08:55:05;;;;;;;37.20;13.30;;;26.50;64.70;;;;;;5017585;28;20507;-63
2023/05/17 08:57:34;;;;;;;18.33;6.53;;;25.80;66.40;;;;;;5016161;28;20038;-63
2023/05/17 09:00:13;;;;;;;22.48;7.30;;;25.30;62.50;;;;;;5017686;28;20068;-63
2023/05/17 09:02:41;;;;;;;16.05;5.97;;;25.60;64.90;;;;;;5017094;28;20026;-63
2023/05/17 09:05:08;;;;;;;12.13;3.95;;;25.40;62.20;;;;;;5017082;28;20034;-63
2023/05/17 09:07:35;;;;;;;15.68;5.97;;;26.10;58.20;;;;;;5017269;28;20467;-63
2023/05/17 09:10:04;;;;;;;18.42;5.75;;;26.00;59.60;;;;;;5017396;28;20029;-63
2023/05/17 09:12:33;;;;;;;20.67;5.63;;;26.80;60.20;;;;;;5017440;28;20030;-63
2023/05/17 09:15:14;;;;;;;14.18;5.10;;;26.80;56.50;;;;;;5016700;28;20033;-64
2023/05/17 09:17:52;;;;;;;;;;;26.10;54.70;;;;;;5017163;28;20056;-64
2023/05/17 09:20:23;;;;;;;24.13;6.25;;;25.80;55.50;;;;;;5017143;28;19909;-64
2023/05/17 09:22:50;;;;;;;;;;;25.50;58.60;;;;;;5016170;28;20026;-64
2023/05/17 09:25:23;;;;;;;16.35;5.65;;;25.50;62.70;;;;;;5015773;28;19906;-64
2023/05/17 09:27:52;;;;;;;17.67;5.60;;;24.80;60.70;;;;;;5016056;28;20418;-64
2023/05/17 09:30:25;;;;;;;13.75;5.25;;;24.20;69.40;;;;;;5016716;28;20026;-63
2023/05/17 09:32:52;;;;;;;11.93;4.80;;;24.40;62.00;;;;;;5016462;28;20030;-64
2023/05/17 09:35:18;;;;;;;14.07;4.70;;;23.90;63.40;;;;;;5016507;28;20022;-64
2023/05/17 09:37:45;;;;;;;20.80;6.38;;;23.90;68.70;;;;;;5016938;28;20105;-64
2023/05/17 09:40:24;;;;;;;14.50;5.60;;;23.20;66.80;;;;;;5016735;28;20022;-64
2023/05/17 09:42:50;;;;;;;18.40;6.68;;;23.10;70.90;;;;;;5014868;28;20073;-64
2023/05/17 09:45:23;;;;;;;16.27;6.57;;;23.00;72.40;;;;;;5013149;28;20383;-63
2023/05/17 09:47:50;;;;;;;20.95;8.13;;;22.70;75.30;;;;;;5015876;28;20054;-64
2023/05/17 09:50:20;;;;;;;20.98;7.53;;;22.40;79.50;;;;;;5016361;28;20018;-64
2023/05/17 09:52:46;;;;;;;16.20;6.72;;;22.00;82.10;;;;;;5016303;28;20037;-64
2023/05/17 09:55:12;;;;;;;25.30;7.20;;;21.80;85.80;;;;;;5015527;28;20029;-63
2023/05/17 09:57:39;;;;;;;16.17;7.13;;;21.60;89.40;;;;;;5015892;28;20438;-64
2023/05/17 10:00:11;;;;;;;17.60;7.90;;;21.50;91.60;;;;;;5015501;28;20022;-64
2023/05/17 10:02:42;;;;;;;17.20;8.27;;;21.70;93.80;;;;;;5015395;28;20129;-64
2023/05/17 10:05:14;;;;;;;25.88;8.40;;;21.80;94.00;;;;;;5015706;28;20530;-63
2023/05/17 10:07:40;;;;;;;18.30;8.60;;;21.70;94.50;;;;;;5015502;28;20042;-63
2023/05/17 10:10:08;;;;;;;16.45;8.50;;;21.50;95.60;;;;;;5015317;28;20084;-64
2023/05/17 10:12:38;;;;;;;14.77;9.27;;;21.30;95.90;;;;;;5015774;28;20095;-64
2023/05/17 10:15:04;;;;;;;16.47;8.03;;;21.20;97.60;;;;;;5014432;28;20029;-64
2023/05/17 10:17:32;;;;;;;20.70;8.95;;;21.50;99.50;;;;;;5014545;28;20471;-64
2023/05/17 10:19:58;;;;;;;15.60;8.48;;;21.50;99.90;;;;;;5015390;28;20034;-63
2023/05/17 10:22:27;;;;;;;14.15;8.55;;;21.80;99.70;;;;;;5014713;28;20524;-63
2023/05/17 10:24:55;;;;;;;15.50;8.18;;;22.20;99.90;;;;;;5015290;28;20029;-63
2023/05/17 10:27:22;;;;;;;19.45;10.45;;;22.60;97.60;;;;;;5015285;28;20033;-64
2023/05/17 10:29:48;;;;;;;14.57;9.15;;;22.60;96.80;;;;;;5015469;28;20034;-64
2023/05/17 10:32:18;;;;;;;14.27;8.98;;;22.60;94.50;;;;;;5015174;28;20022;-64
2023/05/17 10:34:44;;;;;;;15.15;9.23;;;21.40;97.90;;;;;;5014652;28;20256;-64
2023/05/17 10:37:12;;;;;;;25.33;9.40;;;21.80;99.90;;;;;;5015198;28;20453;-63
2023/05/17 10:39:45;;;;;;;15.60;8.95;;;22.20;98.30;;;;;;5015322;28;20030;-64
2023/05/17 10:42:14;;;;;;;19.65;9.63;;;22.20;95.80;;;;;;5015953;28;20052;-64
2023/05/17 10:44:40;;;;;;;14.70;8.27;;;21.70;98.60;;;;;;5015469;28;20472;-64
2023/05/17 10:47:07;;;;;;;19.27;8.82;;;21.40;98.40;;;;;;5014488;28;20022;-64
2023/05/17 10:49:36;;;;;;;16.35;8.10;;;21.30;99.70;;;;;;5015198;28;20030;-63
2023/05/17 10:52:16;;;;;;;14.65;8.60;;;21.10;99.90;;;;;;5014973;28;20379;-63
2023/05/17 10:54:46;;;;;;;19.30;8.88;;;21.10;99.90;;;;;;5014710;28;20030;-63
2023/05/17 10:57:31;;;;;;;15.02;9.18;;;20.80;99.90;;;;;;5015017;28;20032;-63
2023/05/17 10:59:59;;;;;;;15.38;9.70;;;21.00;99.90;;;;;;5014795;28;20048;-63
2023/05/17 11:02:27;;;;;;;15.68;9.90;;;20.80;99.90;;;;;;5014421;28;20104;-63
2023/05/17 11:04:54;;;;;;;16.50;9.15;;;20.70;99.90;;;;;;5014599;28;20037;-63
2023/05/17 11:07:23;;;;;;;20.17;9.70;;;20.90;99.90;;;;;;5015562;28;20052;-64
2023/05/17 11:09:50;;;;;;;15.57;9.05;;;20.60;99.90;;;;;;5017702;28;20067;-63
2023/05/17 11:12:28;;;;;;;16.10;8.85;;;21.00;99.90;;;;;;5012595;28;20037;-64
2023/05/17 11:14:55;;;;;;;21.73;9.95;;;20.80;99.90;;;;;;5014504;28;20029;-63
2023/05/17 11:17:25;;;;;;;22.70;8.80;;;20.90;99.90;;;;;;5014550;28;20072;-64
2023/05/17 11:20:08;;;;;;;23.08;8.48;;;20.80;99.90;;;;;;5014544;28;20034;-63
2023/05/17 11:22:41;;;;;;;67.90;10.38;;;20.90;99.90;;;;;;5014147;28;20026;-63
2023/05/17 11:25:13;;;;;;;12.52;7.65;;;20.90;99.90;;;;;;5014543;28;20025;-63
2023/05/17 11:27:48;;;;;;;17.30;6.13;;;21.00;99.90;;;;;;5014655;28;20026;-63
2023/05/17 11:30:21;;;;;;;13.18;6.45;;;21.10;99.90;;;;;;5013924;28;20033;-63
2023/05/17 11:32:53;;;;;;;11.52;5.32;;;20.90;99.90;;;;;;5014613;28;20029;-63
2023/05/17 11:35:25;;;;;;;12.98;5.68;;;21.20;99.90;;;;;;5017910;28;20038;-63
2023/05/17 11:38:18;;;;;;;11.75;5.53;;;21.80;99.90;;;;;;5018258;28;20030;-64
2023/05/17 11:40:48;;;;;;;10.80;4.72;;;22.70;99.90;;;;;;5018506;28;20022;-63
2023/05/17 11:43:22;;;;;;;15.60;6.05;;;23.40;95.50;;;;;;5018299;28;20057;-64
2023/05/17 11:45:54;;;;;;;14.80;5.05;;;23.40;94.50;;;;;;5018026;28;20030;-64
2023/05/17 11:48:21;;;;;;;12.45;4.15;;;23.50;90.50;;;;;;5018413;28;20018;-64
2023/05/17 11:50:48;;;;;;;10.52;3.97;;;23.50;90.40;;;;;;5017881;28;20041;-63
2023/05/17 11:53:15;;;;;;;10.80;3.83;;;23.50;90.40;;;;;;5018285;28;20058;-64
2023/05/17 11:55:51;;;;;;;14.48;4.60;;;23.20;87.60;;;;;;5018160;28;20480;-64
2023/05/17 11:58:23;;;;;;;5.75;3.42;;;23.00;85.90;;;;;;5018037;28;20038;-63
2023/05/17 12:00:54;;;;;;;7.00;3.47;;;22.50;82.60;;;;;;5017975;28;20029;-63
2023/05/17 12:03:21;;;;;;;10.40;3.83;;;22.30;88.60;;;;;;5017773;28;20026;-63
2023/05/17 12:05:50;;;;;;;12.77;4.10;;;22.30;88.20;;;;;;5000432;28;20025;-63
2023/05/17 12:08:18;;;;;;;9.38;4.20;;;21.90;90.70;;;;;;5017837;28;20030;-63
2023/05/17 12:10:48;;;;;;;14.85;5.32;;;21.60;91.20;;;;;;5017513;28;20046;-63
2023/05/17 12:13:14;;;;;;;10.45;3.90;;;21.30;92.10;;;;;;5017268;28;20375;-64
2023/05/17 12:15:43;;;;;;;7.60;3.42;;;21.20;93.70;;;;;;5017460;28;20160;-64
2023/05/17 12:18:09;;;;;;;10.20;3.83;;;20.80;96.30;;;;;;5017228;28;20097;-63
2023/05/17 12:20:36;;;;;;;9.98;3.63;;;20.80;99.90;;;;;;5017810;28;20127;-63
2023/05/17 12:23:02;;;;;;;7.55;4.00;;;20.80;99.90;;;;;;5016671;28;20463;-63
2023/05/17 12:25:28;;;;;;;11.32;4.90;;;20.90;98.60;;;;;;5017510;28;20029;-63
2023/05/17 12:28:21;;;;;;;9.43;4.80;;;20.80;98.40;;;;;;5017467;28;20038;-63
2023/05/17 12:30:53;;;;;;;10.65;5.05;;;20.60;97.70;;;;;;4997401;28;20050;-64
2023/05/17 12:33:19;;;;;;;11.80;6.35;;;20.40;94.40;;;;;;4997628;28;20111;-64
2023/05/17 12:35:45;;;;;;;12.88;6.63;;;20.20;97.00;;;;;;4997538;28;20034;-64
2023/05/17 12:38:12;;;;;;;17.65;8.05;;;19.90;99.90;;;;;;4997668;28;20066;-64